Terminal Aerodrome Forecast
Issued by NWS

Home | Current Version | Previous Version | Text Only | Print | Product List | Glossary On
Versions: 1 2 3 4 5 6 7 8 9 10 11 12 13 14 15 16 17 18 19
000
FTUS41 KPBZ 011100
TAFAGC
TAF
KAGC 011139Z 0112/0212 35007KT 3SM -RA BR BKN007 OVC025
     FM011430 35010KT 5SM BR SCT007 BKN015 OVC025
     FM011700 35012G22KT P6SM VCSH BKN025
     FM020300 32011KT P6SM BKN025=

USA.gov is the U.S. government's official web portal to all federal, state and local government web resources and services.